createdAt,value
2022-08-19T00:01:53.491Z,18.76
2022-08-19T00:04:24.355Z,18.77
2022-08-19T00:06:52.975Z,18.78
2022-08-19T00:09:22.657Z,18.78
2022-08-19T00:11:50.960Z,18.78
2022-08-19T00:14:21.572Z,18.78
2022-08-19T00:16:52.491Z,18.79
2022-08-19T00:19:20.510Z,18.80
2022-08-19T00:21:48.984Z,18.81
2022-08-19T00:24:17.405Z,18.78
2022-08-19T00:26:47.396Z,18.76
2022-08-19T00:29:18.175Z,18.72
2022-08-19T00:31:46.849Z,18.71
2022-08-19T00:34:16.875Z,18.68
2022-08-19T00:36:45.425Z,18.67
2022-08-19T00:39:14.274Z,18.65
2022-08-19T00:41:43.509Z,18.62
2022-08-19T00:44:15.017Z,18.60
2022-08-19T00:46:55.183Z,18.56
2022-08-19T00:49:33.738Z,18.53
2022-08-19T00:52:04.950Z,18.49
2022-08-19T00:54:34.105Z,18.48
2022-08-19T00:57:04.003Z,18.47
2022-08-19T01:00:00.781Z,18.44
2022-08-19T01:02:20.388Z,18.39
2022-08-19T01:04:50.528Z,18.30
2022-08-19T01:07:19.871Z,18.24
2022-08-19T01:09:48.621Z,18.18
2022-08-19T01:12:17.492Z,18.15
2022-08-19T01:14:46.314Z,18.09
2022-08-19T01:17:16.178Z,18.04
2022-08-19T01:19:47.996Z,18.01
2022-08-19T01:22:33.520Z,17.97
2022-08-19T01:25:02.176Z,17.95
2022-08-19T01:27:43.132Z,17.89
2022-08-19T01:30:13.881Z,17.82
2022-08-19T01:32:42.214Z,17.76
2022-08-19T01:35:10.965Z,17.74
2022-08-19T01:37:49.580Z,17.68
2022-08-19T01:40:18.589Z,17.66
2022-08-19T01:42:46.988Z,17.60
2022-08-19T01:45:15.186Z,17.59
2022-08-19T01:47:43.229Z,17.59
2022-08-19T01:50:19.791Z,17.59
2022-08-19T01:53:02.353Z,17.61
2022-08-19T01:55:35.917Z,17.61
2022-08-19T01:58:12.397Z,17.63
2022-08-19T02:00:40.420Z,17.66
2022-08-19T02:03:09.584Z,17.67
2022-08-19T02:05:37.747Z,17.69
2022-08-19T02:08:07.393Z,17.70
2022-08-19T02:10:35.351Z,17.73
2022-08-19T02:13:03.423Z,17.75
2022-08-19T02:15:31.549Z,17.76
2022-08-19T02:18:00.263Z,17.76
2022-08-19T02:20:28.260Z,17.78
2022-08-19T02:22:56.206Z,17.80
2022-08-19T02:25:25.520Z,17.80
2022-08-19T02:27:53.459Z,17.80
2022-08-19T02:30:22.162Z,17.79
2022-08-19T02:32:50.075Z,17.80
2022-08-19T02:35:18.069Z,17.81
2022-08-19T02:38:03.922Z,17.77
2022-08-19T02:40:35.427Z,17.77
2022-08-19T02:43:03.537Z,17.76
2022-08-19T02:45:34.095Z,17.74
2022-08-19T02:48:02.065Z,17.73
2022-08-19T02:50:34.216Z,17.69
2022-08-19T02:53:02.185Z,17.66
2022-08-19T02:55:30.186Z,17.61
2022-08-19T02:58:00.815Z,17.58
2022-08-19T03:00:29.175Z,17.59
2022-08-19T03:02:57.725Z,17.60
2022-08-19T03:05:47.016Z,17.52
2022-08-19T03:08:15.042Z,17.43
2022-08-19T03:10:46.079Z,17.37
2022-08-19T03:13:18.832Z,17.32
2022-08-19T03:15:49.678Z,17.28
2022-08-19T03:18:18.645Z,17.28
2022-08-19T03:20:48.180Z,17.28
2022-08-19T03:23:18.080Z,17.28
2022-08-19T03:26:03.868Z,17.28
2022-08-19T03:28:37.736Z,17.30
2022-08-19T03:31:41.619Z,17.33
2022-08-19T03:33:57.692Z,17.36
2022-08-19T03:36:27.177Z,17.34
2022-08-19T03:39:00.386Z,17.31
2022-08-19T03:41:34.353Z,17.24
2022-08-19T03:44:17.708Z,17.17
2022-08-19T03:46:47.942Z,17.09
2022-08-19T03:49:16.205Z,17.02
2022-08-19T03:51:48.202Z,16.96
2022-08-19T03:54:17.961Z,16.93
2022-08-19T03:56:48.774Z,16.89
2022-08-19T03:59:20.737Z,16.86
2022-08-19T04:01:49.043Z,16.86
2022-08-19T04:04:17.024Z,16.87
2022-08-19T04:06:48.221Z,16.87
2022-08-19T04:09:16.297Z,16.85
2022-08-19T04:11:47.633Z,16.82
2022-08-19T04:14:19.354Z,16.75
2022-08-19T04:16:48.727Z,16.70
2022-08-19T04:19:18.654Z,16.63
2022-08-19T04:21:50.066Z,16.58
2022-08-19T04:24:18.838Z,16.52
2022-08-19T04:26:47.508Z,16.44
2022-08-19T04:29:19.093Z,16.36
2022-08-19T04:31:47.812Z,16.32
2022-08-19T04:34:18.979Z,16.27
2022-08-19T04:36:47.601Z,16.23
2022-08-19T04:39:17.925Z,16.18
2022-08-19T04:42:03.955Z,16.12
2022-08-19T04:44:35.188Z,16.05
2022-08-19T04:47:11.000Z,16.03
2022-08-19T04:49:39.995Z,15.97
2022-08-19T04:52:09.430Z,15.94
2022-08-19T04:54:39.397Z,15.92
2022-08-19T04:57:10.831Z,15.86
2022-08-19T04:59:41.111Z,15.84
2022-08-19T05:02:10.645Z,15.80
2022-08-19T05:04:40.246Z,15.79
2022-08-19T05:07:09.212Z,15.73
2022-08-19T05:09:57.752Z,15.68
2022-08-19T05:12:29.105Z,15.61
2022-08-19T05:14:59.460Z,15.55
2022-08-19T05:17:31.025Z,15.52
2022-08-19T05:20:19.148Z,15.47
2022-08-19T05:22:48.656Z,15.45
2022-08-19T05:25:20.677Z,15.41
2022-08-19T05:27:49.750Z,15.37
2022-08-19T05:30:33.539Z,15.33
2022-08-19T05:33:10.373Z,15.30
2022-08-19T05:35:38.570Z,15.29
2022-08-19T05:38:08.213Z,15.26
2022-08-19T05:40:37.045Z,15.23
2022-08-19T05:43:05.781Z,15.21
2022-08-19T05:45:40.101Z,15.20
2022-08-19T05:48:08.045Z,15.21
2022-08-19T05:50:37.748Z,15.21
2022-08-19T05:53:05.801Z,15.22
2022-08-19T05:55:33.815Z,15.22
2022-08-19T05:58:02.751Z,15.22
2022-08-19T06:00:31.619Z,15.19
2022-08-19T06:03:09.607Z,15.19
2022-08-19T06:05:48.339Z,15.21
2022-08-19T06:08:19.649Z,15.21
2022-08-19T06:10:47.722Z,15.23
2022-08-19T06:13:15.881Z,15.25
2022-08-19T06:15:45.330Z,15.25
2022-08-19T06:18:15.247Z,15.26
2022-08-19T06:20:55.590Z,15.28
2022-08-19T06:23:31.807Z,15.30
2022-08-19T06:25:59.738Z,15.33
2022-08-19T06:28:27.632Z,15.36
2022-08-19T06:30:55.594Z,15.39
2022-08-19T06:33:25.130Z,15.44
2022-08-19T06:35:53.224Z,15.48
2022-08-19T06:38:24.520Z,15.56
2022-08-19T06:40:52.461Z,15.61
2022-08-19T06:43:20.454Z,15.66
2022-08-19T06:45:56.424Z,15.75
2022-08-19T06:48:26.272Z,15.85
2022-08-19T06:50:54.198Z,15.98
2022-08-19T06:53:22.158Z,16.11
2022-08-19T06:56:01.227Z,16.27
2022-08-19T06:58:29.433Z,16.40
2022-08-19T07:01:05.637Z,16.55
2022-08-19T07:03:44.186Z,16.74
2022-08-19T07:06:39.409Z,16.88
2022-08-19T07:09:05.189Z,17.07
2022-08-19T07:11:34.163Z,17.22
2022-08-19T07:14:02.967Z,17.33
2022-08-19T07:16:31.874Z,17.40
2022-08-19T07:19:11.598Z,17.46
2022-08-19T07:21:44.818Z,17.51
2022-08-19T07:24:13.292Z,17.53
2022-08-19T07:26:44.136Z,17.56
2022-08-19T07:29:12.542Z,17.58
2022-08-19T07:31:43.623Z,17.58
2022-08-19T07:34:14.595Z,17.59
2022-08-19T07:36:45.337Z,17.61
2022-08-19T07:39:16.225Z,17.64
2022-08-19T07:41:45.190Z,17.69
2022-08-19T07:44:14.055Z,17.77
2022-08-19T07:46:46.487Z,17.88
2022-08-19T07:49:20.123Z,17.97
2022-08-19T07:51:49.752Z,18.07
2022-08-19T07:54:18.274Z,18.19
2022-08-19T07:56:46.688Z,18.28
2022-08-19T07:59:15.171Z,18.37
2022-08-19T08:01:43.119Z,18.47
2022-08-19T08:04:28.462Z,18.50
2022-08-19T08:07:15.258Z,18.48
2022-08-19T08:09:46.514Z,18.49
2022-08-19T08:12:34.310Z,18.55
2022-08-19T08:15:08.206Z,18.61
2022-08-19T08:17:49.690Z,18.63
2022-08-19T08:20:20.084Z,18.65
2022-08-19T08:23:07.235Z,18.70
2022-08-19T08:25:36.387Z,18.80
2022-08-19T08:28:06.202Z,18.82
2022-08-19T08:30:36.885Z,18.88
2022-08-19T08:33:06.412Z,18.89
2022-08-19T08:35:34.496Z,18.90
2022-08-19T08:38:05.220Z,18.92
2022-08-19T08:40:41.124Z,19.00
2022-08-19T08:43:23.857Z,19.09
2022-08-19T08:45:57.409Z,19.18
2022-08-19T08:48:36.386Z,19.13
2022-08-19T08:51:07.292Z,19.12
2022-08-19T08:53:41.788Z,19.15
2022-08-19T08:56:13.471Z,19.13
2022-08-19T08:58:58.609Z,19.04
2022-08-19T09:01:30.313Z,19.00
2022-08-19T09:04:02.675Z,19.04
2022-08-19T09:06:40.671Z,19.04
2022-08-19T09:09:17.887Z,19.05
2022-08-19T09:12:03.070Z,19.09
2022-08-19T09:14:51.120Z,19.14
2022-08-19T09:17:22.634Z,19.20
2022-08-19T09:19:56.310Z,19.23
2022-08-19T09:22:26.060Z,19.30
2022-08-19T09:24:57.187Z,19.38
2022-08-19T09:27:42.218Z,19.52
2022-08-19T09:30:14.350Z,19.64
2022-08-19T09:32:43.987Z,19.69
2022-08-19T09:35:13.591Z,19.71
2022-08-19T09:37:43.218Z,19.72
2022-08-19T09:40:14.490Z,19.68
2022-08-19T09:42:50.042Z,19.69
2022-08-19T09:45:21.907Z,19.58
2022-08-19T09:47:50.418Z,19.42
2022-08-19T09:50:19.100Z,19.33
2022-08-19T09:52:55.388Z,19.41
2022-08-19T09:55:31.876Z,19.59
2022-08-19T09:58:04.604Z,19.69
2022-08-19T10:00:33.009Z,19.85
2022-08-19T10:03:01.405Z,19.86
2022-08-19T10:05:49.124Z,19.76
2022-08-19T10:08:20.708Z,19.63
2022-08-19T10:10:51.598Z,19.55
2022-08-19T10:13:26.440Z,19.55
2022-08-19T10:15:56.874Z,19.51
2022-08-19T10:18:26.550Z,19.53
2022-08-19T10:21:03.726Z,19.49
2022-08-19T10:23:33.727Z,19.53
2022-08-19T10:26:07.147Z,19.56
2022-08-19T10:28:38.935Z,19.58
2022-08-19T10:31:08.035Z,19.65
2022-08-19T10:33:53.398Z,19.63
2022-08-19T10:36:24.721Z,19.61
2022-08-19T10:38:56.798Z,19.62
2022-08-19T10:41:30.272Z,19.60
2022-08-19T10:44:04.336Z,19.60
2022-08-19T10:46:33.590Z,19.52
2022-08-19T10:49:07.983Z,19.53
2022-08-19T10:51:53.389Z,19.66
2022-08-19T10:54:32.182Z,19.81
2022-08-19T10:57:02.957Z,20.04
2022-08-19T10:59:35.930Z,20.13
2022-08-19T11:02:06.180Z,20.24
2022-08-19T11:04:35.876Z,20.31
2022-08-19T11:07:04.757Z,20.27
2022-08-19T11:09:34.310Z,20.05
2022-08-19T11:12:04.784Z,19.55
2022-08-19T11:14:34.276Z,19.13
2022-08-19T11:17:03.039Z,19.00
2022-08-19T11:19:31.401Z,19.06
2022-08-19T11:22:02.905Z,19.24
2022-08-19T11:24:33.741Z,19.35
2022-08-19T11:27:08.642Z,19.41
2022-08-19T11:29:37.244Z,19.46
2022-08-19T11:32:07.335Z,19.67
2022-08-19T11:34:36.454Z,19.83
2022-08-19T11:37:06.777Z,19.96
2022-08-19T11:39:36.509Z,20.12
2022-08-19T11:45:14.939Z,20.24
2022-08-19T11:47:42.990Z,20.33
2022-08-19T11:50:11.477Z,20.40
2022-08-19T11:52:39.485Z,20.42
2022-08-19T11:55:09.046Z,20.46
2022-08-19T11:57:38.458Z,20.62
2022-08-19T12:00:08.428Z,20.83
2022-08-19T12:02:37.775Z,20.95
2022-08-19T12:05:11.551Z,21.04
2022-08-19T12:07:40.725Z,21.08
2022-08-19T12:10:09.525Z,21.14
2022-08-19T12:12:43.439Z,21.16
2022-08-19T12:15:13.012Z,21.26
2022-08-19T12:17:41.208Z,21.46
2022-08-19T12:20:11.454Z,21.52
2022-08-19T12:22:40.313Z,21.74
2022-08-19T12:25:11.676Z,21.96
2022-08-19T12:27:49.659Z,22.17
2022-08-19T12:30:20.818Z,22.38
2022-08-19T12:32:48.796Z,22.47
2022-08-19T12:35:16.754Z,22.37
2022-08-19T12:37:46.142Z,22.12
2022-08-19T12:40:26.511Z,21.86
2022-08-19T12:42:56.283Z,21.77
2022-08-19T12:45:24.548Z,21.78
2022-08-19T12:47:54.977Z,21.74
2022-08-19T12:50:23.380Z,21.46
2022-08-19T12:52:51.735Z,21.30
2022-08-19T12:55:20.251Z,21.21
2022-08-19T12:57:49.510Z,21.51
2022-08-19T13:00:23.042Z,21.52
2022-08-19T13:02:53.036Z,21.62
2022-08-19T13:05:24.468Z,21.81
2022-08-19T13:07:56.856Z,21.86
2022-08-19T13:10:35.938Z,21.79
2022-08-19T13:13:06.828Z,21.93
2022-08-19T13:15:37.839Z,21.90
2022-08-19T13:18:06.250Z,22.00
2022-08-19T13:20:34.699Z,22.08
2022-08-19T13:23:04.970Z,22.13
2022-08-19T13:25:32.987Z,22.08
2022-08-19T13:28:01.725Z,22.04
2022-08-19T13:30:47.435Z,21.99
2022-08-19T13:33:16.821Z,21.98
2022-08-19T13:35:47.808Z,21.89
2022-08-19T13:38:17.416Z,21.80
2022-08-19T13:40:45.732Z,21.85
2022-08-19T13:43:22.980Z,21.81
2022-08-19T13:45:53.746Z,21.68
2022-08-19T13:48:24.582Z,21.67
2022-08-19T13:50:52.547Z,21.62
2022-08-19T13:53:20.823Z,21.76
2022-08-19T13:55:48.768Z,21.83
2022-08-19T13:58:16.748Z,22.01
2022-08-19T14:00:46.843Z,22.17
2022-08-19T14:03:14.950Z,22.39
2022-08-19T14:05:44.363Z,22.52
2022-08-19T14:08:15.039Z,22.55
2022-08-19T14:10:45.207Z,22.72
2022-08-19T14:13:16.789Z,22.80
2022-08-19T14:15:44.863Z,22.83
2022-08-19T14:18:13.052Z,22.92
2022-08-19T14:20:41.083Z,22.57
2022-08-19T14:23:10.925Z,22.34
2022-08-19T14:25:38.895Z,22.48
2022-08-19T14:28:08.589Z,22.83
2022-08-19T14:30:38.131Z,23.19
2022-08-19T14:33:08.028Z,23.35
2022-08-19T14:35:36.657Z,23.55
2022-08-19T14:38:05.750Z,23.64
2022-08-19T14:40:35.757Z,23.46
2022-08-19T14:43:06.041Z,23.01
2022-08-19T14:45:37.202Z,22.61
2022-08-19T14:48:05.657Z,22.52
2022-08-19T14:50:33.710Z,22.45
2022-08-19T14:53:07.516Z,22.54
2022-08-19T14:55:43.525Z,22.56
2022-08-19T14:58:28.583Z,22.68
2022-08-19T15:01:00.098Z,22.76
2022-08-19T15:03:28.331Z,22.90
2022-08-19T15:05:58.587Z,23.17
2022-08-19T15:08:27.702Z,23.46
2022-08-19T15:10:57.731Z,23.48
2022-08-19T15:13:27.411Z,23.43
2022-08-19T15:15:55.858Z,23.47
2022-08-19T15:18:23.884Z,23.45
2022-08-19T15:20:52.376Z,23.55
2022-08-19T15:23:21.740Z,23.63
2022-08-19T15:25:53.027Z,23.54
2022-08-19T15:28:22.999Z,23.53
2022-08-19T15:30:51.541Z,23.29
2022-08-19T15:35:50.931Z,22.91
2022-08-19T15:38:22.023Z,22.87
2022-08-19T15:40:51.012Z,22.88
2022-08-19T15:43:20.810Z,22.65
2022-08-19T15:45:50.310Z,22.55
2022-08-19T15:48:18.348Z,22.54
2022-08-19T15:50:46.267Z,22.48
2022-08-19T15:53:14.322Z,22.22
2022-08-19T15:55:45.648Z,22.01
2022-08-19T15:58:33.174Z,21.90
2022-08-19T16:01:23.512Z,21.74
2022-08-19T16:04:11.322Z,21.47
2022-08-19T16:06:45.334Z,21.43
2022-08-19T16:09:14.043Z,21.40
2022-08-19T16:11:45.886Z,21.43
2022-08-19T16:14:14.853Z,21.43
2022-08-19T16:16:46.706Z,21.30
2022-08-19T16:19:16.656Z,21.13
2022-08-19T16:21:45.751Z,20.84
2022-08-19T16:24:16.614Z,20.60
2022-08-19T16:26:45.683Z,20.40
2022-08-19T16:29:14.690Z,20.18
2022-08-19T16:31:57.881Z,19.95
2022-08-19T16:34:32.418Z,19.66
2022-08-19T16:37:01.785Z,19.55
2022-08-19T16:39:29.917Z,19.63
2022-08-19T16:41:59.098Z,19.93
2022-08-19T16:44:29.553Z,20.32
2022-08-19T16:47:05.632Z,20.70
2022-08-19T16:49:53.492Z,21.06
2022-08-19T16:52:26.913Z,21.36
2022-08-19T16:54:55.688Z,21.40
2022-08-19T16:57:24.908Z,21.45
2022-08-19T16:59:53.433Z,21.53
2022-08-19T17:02:25.530Z,22.16
2022-08-19T17:04:59.287Z,22.88
2022-08-19T17:07:28.402Z,23.24
2022-08-19T17:09:57.270Z,23.37
2022-08-19T17:12:30.533Z,23.50
2022-08-19T17:15:01.348Z,23.69
2022-08-19T17:17:31.516Z,23.68
2022-08-19T17:20:00.387Z,23.78
2022-08-19T17:22:28.814Z,23.84
2022-08-19T17:24:58.379Z,23.88
2022-08-19T17:27:32.124Z,23.68
2022-08-19T17:30:02.397Z,23.46
2022-08-19T17:32:35.157Z,23.66
2022-08-19T17:35:04.568Z,23.75
2022-08-19T17:37:32.603Z,23.40
2022-08-19T17:40:00.621Z,22.76
2022-08-19T17:42:28.610Z,22.28
2022-08-19T17:44:59.523Z,21.95
2022-08-19T17:47:28.458Z,21.56
2022-08-19T17:49:58.024Z,21.23
2022-08-19T17:52:26.349Z,21.00
2022-08-19T17:54:54.283Z,20.82
2022-08-19T17:57:22.308Z,20.58
2022-08-19T17:59:50.458Z,20.35
2022-08-19T18:02:20.653Z,20.11
2022-08-19T18:04:50.033Z,19.87
2022-08-19T18:07:21.512Z,19.77
2022-08-19T18:09:51.996Z,19.64
2022-08-19T18:12:24.563Z,19.55
2022-08-19T18:14:52.583Z,19.44
2022-08-19T18:17:23.173Z,19.28
2022-08-19T18:19:51.703Z,19.16
2022-08-19T18:22:26.981Z,19.10
2022-08-19T18:24:55.705Z,19.00
2022-08-19T18:27:23.898Z,18.96
2022-08-19T18:29:51.876Z,18.91
2022-08-19T18:32:23.651Z,18.86
2022-08-19T18:34:53.160Z,18.82
2022-08-19T18:37:21.794Z,18.80
2022-08-19T18:40:08.859Z,18.76
2022-08-19T18:42:54.590Z,18.78
2022-08-19T18:45:40.674Z,18.79
2022-08-19T18:48:29.418Z,18.80
2022-08-19T18:50:59.244Z,18.73
2022-08-19T18:53:29.891Z,18.72
2022-08-19T18:55:59.825Z,18.72
2022-08-19T18:58:32.223Z,18.75
2022-08-19T19:01:01.435Z,18.76
2022-08-19T19:03:29.464Z,18.77
2022-08-19T19:05:57.377Z,18.78
2022-08-19T19:08:27.144Z,18.76
2022-08-19T19:10:58.894Z,18.78
2022-08-19T19:13:29.432Z,18.78
2022-08-19T19:15:57.376Z,18.78
2022-08-19T19:18:25.327Z,18.78
2022-08-19T19:20:53.411Z,18.77
2022-08-19T19:23:22.463Z,18.76
2022-08-19T19:25:52.323Z,18.75
2022-08-19T19:28:25.682Z,18.72
2022-08-19T19:30:58.763Z,18.68
2022-08-19T19:33:26.800Z,18.62
2022-08-19T19:35:54.981Z,18.61
2022-08-19T19:38:23.021Z,18.56
2022-08-19T19:40:51.309Z,18.54
2022-08-19T19:43:19.230Z,18.52
2022-08-19T19:45:49.358Z,18.50
2022-08-19T19:48:18.757Z,18.47
2022-08-19T19:50:53.972Z,18.44
2022-08-19T19:53:26.029Z,18.43
2022-08-19T19:55:58.895Z,18.39
2022-08-19T19:58:28.775Z,18.37
2022-08-19T20:00:57.838Z,18.38
2022-08-19T20:03:27.470Z,18.35
2022-08-19T20:05:59.189Z,18.32
2022-08-19T20:08:44.831Z,18.30
2022-08-19T20:11:17.507Z,18.29
2022-08-19T20:13:45.481Z,18.31
2022-08-19T20:16:13.445Z,18.32
2022-08-19T20:18:43.746Z,18.33
2022-08-19T20:21:12.351Z,18.33
2022-08-19T20:23:40.318Z,18.35
2022-08-19T20:26:08.478Z,18.34
2022-08-19T20:28:46.936Z,18.37
2022-08-19T20:31:20.075Z,18.38
2022-08-19T20:33:49.852Z,18.40
2022-08-19T20:36:18.142Z,18.41
2022-08-19T20:38:46.209Z,18.43
2022-08-19T20:41:15.008Z,18.42
2022-08-19T20:43:42.901Z,18.43
2022-08-19T20:46:11.028Z,18.47
2022-08-19T20:48:39.308Z,18.44
2022-08-19T20:51:10.638Z,18.44
2022-08-19T20:53:39.787Z,18.45
2022-08-19T20:56:08.661Z,18.48
2022-08-19T20:58:38.223Z,18.45
2022-08-19T21:01:07.582Z,18.43
2022-08-19T21:03:43.438Z,18.46
2022-08-19T21:06:14.534Z,18.44
2022-08-19T21:08:42.538Z,18.44
2022-08-19T21:11:11.103Z,18.40
2022-08-19T21:13:39.148Z,18.36
2022-08-19T21:16:09.579Z,18.34
2022-08-19T21:18:37.627Z,18.36
2022-08-19T21:21:05.859Z,18.35
2022-08-19T21:23:35.153Z,18.33
2022-08-19T21:26:03.135Z,18.33
2022-08-19T21:28:35.908Z,18.33
2022-08-19T21:31:06.255Z,18.33
2022-08-19T21:33:34.541Z,18.34
2022-08-19T21:36:02.614Z,18.33
2022-08-19T21:38:30.686Z,18.32
2022-08-19T21:41:00.060Z,18.31
2022-08-19T21:43:33.920Z,18.29
2022-08-19T21:46:01.932Z,18.31
2022-08-19T21:48:30.016Z,18.29
2022-08-19T21:50:57.940Z,18.27
2022-08-19T21:53:25.910Z,18.24
2022-08-19T21:56:02.793Z,18.25
2022-08-19T21:58:31.004Z,18.25
2022-08-19T22:00:59.416Z,18.25
2022-08-19T22:03:27.602Z,18.24
2022-08-19T22:05:55.514Z,18.23
2022-08-19T22:08:23.503Z,18.21
2022-08-19T22:10:51.833Z,18.19
2022-08-19T22:13:21.896Z,18.18
2022-08-19T22:15:51.963Z,18.18
2022-08-19T22:18:19.904Z,18.16
2022-08-19T22:20:48.027Z,18.14
2022-08-19T22:23:16.150Z,18.16
2022-08-19T22:25:46.978Z,18.18
2022-08-19T22:28:18.838Z,18.19
2022-08-19T22:30:51.079Z,18.21
2022-08-19T22:33:22.407Z,18.21
2022-08-19T22:35:52.622Z,18.20
2022-08-19T22:38:20.596Z,18.21
2022-08-19T22:40:50.257Z,18.22
2022-08-19T22:43:21.221Z,18.25
2022-08-19T22:45:52.545Z,18.28
2022-08-19T22:48:23.556Z,18.29
2022-08-19T22:51:05.715Z,18.32
2022-08-19T22:53:33.730Z,18.34
2022-08-19T22:56:01.828Z,18.34
2022-08-19T22:58:30.018Z,18.32
2022-08-19T23:00:59.392Z,18.33
2022-08-19T23:03:27.447Z,18.33
2022-08-19T23:05:56.517Z,18.34
2022-08-19T23:08:25.222Z,18.34
2022-08-19T23:10:53.198Z,18.32
2022-08-19T23:13:21.328Z,18.33
2022-08-19T23:15:49.319Z,18.31
2022-08-19T23:18:20.099Z,18.26
2022-08-19T23:20:48.282Z,18.21
2022-08-19T23:23:19.834Z,18.14
2022-08-19T23:25:49.908Z,18.11
2022-08-19T23:28:35.009Z,18.07
2022-08-19T23:31:02.995Z,18.04
2022-08-19T23:33:46.469Z,17.94
2022-08-19T23:36:20.535Z,17.84
2022-08-19T23:38:50.583Z,17.70
2022-08-19T23:41:20.445Z,17.48
2022-08-19T23:43:50.877Z,17.36
2022-08-19T23:46:27.960Z,17.26
2022-08-19T23:48:58.080Z,17.23
2022-08-19T23:51:26.453Z,17.23
2022-08-19T23:53:54.464Z,17.22
2022-08-19T23:56:22.687Z,17.23
2022-08-19T23:58:50.623Z,17.24
